Tellico Plains, TN

6:18 PM EST on December 02, 2016 (GMT -0500)
Tellico Plains Downtown | | Change Station

Elev 919 ft 35.36 °N, 84.29 °W | Updated 15 seconds ago

Clear
Clear
42.8 °F
Feels Like 43 °F
N
0.0
Wind Variable Wind from SSE
Gusts 0.0 mph

Today
High -- | Low -- °F
--% Chance of Precip.
Yesterday
High -- | Low -- °F
Precip. -- in
Pressure 30.26 in
Visibility 10.0 miles
Clouds Clear
Windchill 43 °F
Dew Point 35 °F
Humidity 73%
Rainfall 0.00 in
Snow Depth Not available.
7:29 AM 5:24 PM
Waxing Crescent, 11% visible
METAR KMMI 022315Z AUTO 00000KT 10SM CLR 06/01 A3026 RMK
Pressure 30.26 in
Visibility 10.0 miles
Clouds Clear
Windchill 43 °F
Dew Point 35 °F
Humidity 73%
Rainfall 0.00 in
Snow Depth Not available.
7:29 AM 5:24 PM
Waxing Crescent, 11% visible
METAR KMMI 022315Z AUTO 00000KT 10SM CLR 06/01 A3026 RMK

10-Day Weather Forecast

Almanac

Astronomy

Dec. 02, 2016 Rise Set
Actual Time
Civil Twilight
Nautical Twilight
Astronomical Twilight
Moon
Length of Visible Light
Length of Day
Tomorrow will be .
, % of the Moon is Illuminated

Today's Extremes

State Highs State Lows

Community

WunderPhotos

Upload Photos

1,955,377 photos uploaded!

WunderBlog® & News

Nearby

Air Quality

  Air Quality AQ Index Pollutant
Not available.

Snow Depth

Station Depth Elevation

Earthquake Activity

City Distance Mag. Time & Date
Minimum magnitude displayed is 2.5.

Coastal Water Temperatures

Place Temperature

Stations

Nearby Weather Stations

Station Location Temp. Windchill Dew Point Humidity Wind Precip. Elev Updated Type
                   

Watches & Warnings

There are currently no watches in effect.